Tarentum, Pennsylvania
Current Conditions -  °F | °C
As of 12:15 PM on Wednesday 26 Nov 2014 (Local Time) from KBTP Reporting Station
Overcast Overcast  
Wind Chill: 24°   Ceiling: 600
Heat Index: 30°   Visibility: 1mi
Dew Point: 28°   Wind: 6mph
Humidity: 93%   Direction: 40°NE
Pressure: 30.06"   Gusts: NA
Location:  40.6°N, 79.75°W
Report Text: KBTP 261715Z AUTO 04005KT 1SM BKN006 OVC017 M01/M02 A3006 RMK AO1
Loading
Personal Weather Stations






























Interactive Weather Map New forecast layout! Learn more

10-Day Weather Forecast

Advertisements
Track Severe Weather on mobile